createdAt,value
2022-09-01T00:00:01.863Z,97.51
2022-09-01T00:02:31.498Z,98.20
2022-09-01T00:05:01.950Z,97.93
2022-09-01T00:07:32.200Z,98.21
2022-09-01T00:10:01.086Z,98.71
2022-09-01T00:12:30.897Z,98.90
2022-09-01T00:14:59.971Z,99.45
2022-09-01T00:17:29.982Z,99.49
2022-09-01T00:19:58.825Z,99.40
2022-09-01T00:22:27.867Z,98.96
2022-09-01T00:24:58.007Z,98.96
2022-09-01T00:27:27.987Z,99.26
2022-09-01T00:30:00.069Z,99.82
2022-09-01T00:32:29.048Z,99.18
2022-09-01T00:34:58.080Z,98.93
2022-09-01T00:37:26.842Z,99.20
2022-09-01T00:39:57.105Z,98.83
2022-09-01T00:42:25.995Z,99.30
2022-09-01T00:44:54.840Z,99.61
2022-09-01T00:47:23.594Z,99.68
2022-09-01T00:49:53.034Z,100.00
2022-09-01T00:52:24.313Z,99.15
2022-09-01T00:54:58.196Z,98.98
2022-09-01T00:57:27.493Z,98.43
2022-09-01T00:59:58.711Z,98.87
2022-09-01T01:02:28.071Z,98.82
2022-09-01T01:05:00.634Z,98.90
2022-09-01T01:07:29.747Z,99.13
2022-09-01T01:09:59.985Z,99.38
2022-09-01T01:12:30.826Z,99.78
2022-09-01T01:14:59.939Z,100.00
2022-09-01T01:17:28.703Z,99.43
2022-09-01T01:20:16.054Z,99.59
2022-09-01T01:23:03.715Z,99.48
2022-09-01T01:25:37.347Z,99.09
2022-09-01T01:28:13.064Z,98.66
2022-09-01T01:30:44.451Z,99.49
2022-09-01T01:33:13.238Z,99.10
2022-09-01T01:35:42.390Z,99.37
2022-09-01T01:38:11.219Z,100.00
2022-09-01T01:40:41.818Z,100.00
2022-09-01T01:43:11.530Z,99.63
2022-09-01T01:45:40.375Z,100.00
2022-09-01T01:48:10.709Z,99.80
2022-09-01T01:50:41.040Z,100.00
2022-09-01T01:53:12.082Z,100.00
2022-09-01T01:55:43.703Z,99.48
2022-09-01T01:58:15.004Z,99.37
2022-09-01T02:00:47.494Z,98.35
2022-09-01T02:03:19.116Z,98.54
2022-09-01T02:05:49.025Z,98.53
2022-09-01T02:08:22.863Z,98.41
2022-09-01T02:10:54.960Z,98.77
2022-09-01T02:13:26.667Z,98.67
2022-09-01T02:15:57.178Z,99.35
2022-09-01T02:18:27.935Z,100.00
2022-09-01T02:20:58.814Z,100.00
2022-09-01T02:23:28.108Z,100.00
2022-09-01T02:26:17.534Z,100.00
2022-09-01T02:28:55.737Z,100.00
2022-09-01T02:31:25.133Z,100.00
2022-09-01T02:33:54.700Z,100.00
2022-09-01T02:36:25.179Z,99.86
2022-09-01T02:38:56.534Z,99.96
2022-09-01T02:41:34.714Z,99.71
2022-09-01T02:44:05.749Z,99.29
2022-09-01T02:46:34.567Z,99.17
2022-09-01T02:49:04.505Z,98.96
2022-09-01T02:51:33.354Z,99.14
2022-09-01T02:54:02.115Z,99.27
2022-09-01T02:56:32.538Z,98.90
2022-09-01T02:59:03.137Z,99.35
2022-09-01T03:01:33.854Z,98.95
2022-09-01T03:04:09.746Z,98.91
2022-09-01T03:06:39.242Z,98.42
2022-09-01T03:09:11.777Z,98.68
2022-09-01T03:11:43.840Z,98.52
2022-09-01T03:14:13.537Z,98.30
2022-09-01T03:16:42.497Z,98.66
2022-09-01T03:19:12.122Z,98.79
2022-09-01T03:21:44.749Z,99.17
2022-09-01T03:24:16.833Z,99.31
2022-09-01T03:26:50.226Z,99.08
2022-09-01T03:29:19.374Z,99.08
2022-09-01T03:31:48.558Z,98.93
2022-09-01T03:34:20.700Z,99.08
2022-09-01T03:36:51.176Z,98.74
2022-09-01T03:39:20.465Z,98.65
2022-09-01T03:41:50.575Z,98.97
2022-09-01T03:44:19.287Z,99.17
2022-09-01T03:46:48.037Z,99.30
2022-09-01T03:49:24.898Z,99.56
2022-09-01T03:51:54.084Z,99.47
2022-09-01T03:54:30.403Z,99.87
2022-09-01T03:57:00.713Z,100.00
2022-09-01T03:59:30.327Z,100.00
2022-09-01T04:02:00.202Z,100.00
2022-09-01T04:04:31.482Z,100.00
2022-09-01T04:07:01.196Z,100.00
2022-09-01T04:09:29.900Z,99.70
2022-09-01T04:12:00.022Z,99.86
2022-09-01T04:14:29.281Z,99.69
2022-09-01T04:17:17.059Z,98.98
2022-09-01T04:19:46.075Z,98.79
2022-09-01T04:22:15.594Z,98.63
2022-09-01T04:24:45.999Z,98.77
2022-09-01T04:27:18.513Z,98.42
2022-09-01T04:29:48.491Z,98.99
2022-09-01T04:32:17.329Z,99.29
2022-09-01T04:34:46.077Z,99.66
2022-09-01T04:37:18.177Z,100.00
2022-09-01T04:39:55.656Z,100.00
2022-09-01T04:42:29.240Z,100.00
2022-09-01T04:44:59.918Z,100.00
2022-09-01T04:47:36.253Z,99.77
2022-09-01T04:50:13.878Z,100.00
2022-09-01T04:52:43.420Z,100.00
2022-09-01T04:55:17.532Z,100.00
2022-09-01T04:57:49.469Z,100.00
2022-09-01T05:00:23.402Z,100.00
2022-09-01T05:02:53.445Z,100.00
2022-09-01T05:05:23.025Z,100.00
2022-09-01T05:07:55.460Z,100.00
2022-09-01T05:10:29.832Z,100.00
2022-09-01T05:13:00.201Z,100.00
2022-09-01T05:15:30.945Z,100.00
2022-09-01T05:18:02.700Z,100.00
2022-09-01T05:20:32.100Z,100.00
2022-09-01T05:23:01.818Z,100.00
2022-09-01T05:25:30.838Z,100.00
2022-09-01T05:28:02.790Z,99.92
2022-09-01T05:30:31.717Z,100.00
2022-09-01T05:33:00.419Z,100.00
2022-09-01T05:35:32.587Z,100.00
2022-09-01T05:38:02.725Z,100.00
2022-09-01T05:40:34.019Z,100.00
2022-09-01T05:43:04.444Z,100.00
2022-09-01T05:45:56.328Z,99.79
2022-09-01T05:48:26.678Z,99.11
2022-09-01T05:50:59.795Z,99.37
2022-09-01T05:53:31.059Z,98.82
2022-09-01T05:56:00.005Z,98.07
2022-09-01T05:59:22.333Z,98.09
2022-09-01T06:01:22.320Z,97.76
2022-09-01T06:03:53.149Z,99.11
2022-09-01T06:06:22.966Z,98.93
2022-09-01T06:08:51.976Z,97.62
2022-09-01T06:11:21.791Z,98.18
2022-09-01T06:13:55.262Z,98.40
2022-09-01T06:16:25.473Z,98.21
2022-09-01T06:18:57.461Z,98.03
2022-09-01T06:21:28.967Z,98.38
2022-09-01T06:23:59.255Z,98.06
2022-09-01T06:26:30.050Z,98.21
2022-09-01T06:29:03.487Z,97.25
2022-09-01T06:31:35.129Z,97.59
2022-09-01T06:34:05.378Z,97.42
2022-09-01T06:36:36.660Z,98.11
2022-09-01T06:39:05.679Z,98.17
2022-09-01T06:41:36.256Z,98.48
2022-09-01T06:44:09.900Z,96.98
2022-09-01T06:46:41.255Z,96.24
2022-09-01T06:49:11.622Z,96.37
2022-09-01T06:51:40.929Z,97.38
2022-09-01T06:54:14.856Z,97.64
2022-09-01T06:56:44.922Z,96.71
2022-09-01T06:59:22.337Z,96.42
2022-09-01T07:02:01.466Z,95.72
2022-09-01T07:04:32.226Z,95.41
2022-09-01T07:07:54.070Z,95.87
2022-09-01T07:10:06.084Z,95.01
2022-09-01T07:13:04.800Z,95.98
2022-09-01T07:16:31.860Z,94.80
2022-09-01T07:18:25.188Z,94.13
2022-09-01T07:21:05.487Z,94.26
2022-09-01T07:23:47.376Z,94.44
2022-09-01T07:26:29.054Z,93.34
2022-09-01T07:29:01.821Z,92.38
2022-09-01T07:34:41.930Z,91.52
2022-09-01T07:42:31.641Z,90.89
2022-09-01T07:43:12.853Z,90.79
2022-09-01T07:45:47.685Z,91.60
2022-09-01T07:53:58.828Z,94.15
2022-09-01T07:56:27.614Z,90.76
2022-09-01T07:58:57.241Z,90.23
2022-09-01T08:01:27.530Z,90.29
2022-09-01T08:04:02.046Z,89.15
2022-09-01T08:06:39.320Z,91.75
2022-09-01T08:09:11.594Z,91.14
2022-09-01T08:12:01.137Z,90.07
2022-09-01T08:14:33.716Z,89.38
2022-09-01T08:17:34.355Z,88.70
2022-09-01T08:19:54.415Z,90.09
2022-09-01T08:22:25.199Z,91.23
2022-09-01T08:24:54.930Z,92.10
2022-09-01T08:27:23.926Z,87.30
2022-09-01T08:29:52.733Z,82.39
2022-09-01T08:32:22.018Z,84.94
2022-09-01T08:34:50.957Z,82.59
2022-09-01T08:37:22.215Z,80.06
2022-09-01T08:39:52.869Z,80.83
2022-09-01T08:42:32.956Z,80.62
2022-09-01T08:45:05.661Z,79.70
2022-09-01T08:47:50.453Z,76.71
2022-09-01T08:50:23.908Z,73.75
2022-09-01T08:53:09.046Z,77.56
2022-09-01T08:55:42.164Z,73.76
2022-09-01T08:58:12.111Z,74.33
2022-09-01T09:00:46.670Z,72.84
2022-09-01T09:03:22.113Z,71.56
2022-09-01T09:06:04.062Z,70.79
2022-09-01T09:08:56.921Z,70.26
2022-09-01T09:11:38.801Z,68.41
2022-09-01T09:14:12.517Z,70.86
2022-09-01T09:16:43.090Z,68.21
2022-09-01T09:19:17.175Z,68.52
2022-09-01T09:21:48.217Z,68.95
2022-09-01T09:24:22.861Z,68.71
2022-09-01T09:26:52.193Z,67.44
2022-09-01T09:29:22.021Z,68.39
2022-09-01T09:32:03.983Z,67.60
2022-09-01T09:34:35.782Z,68.08
2022-09-01T09:37:28.219Z,65.76
2022-09-01T09:40:15.118Z,63.25
2022-09-01T09:43:02.089Z,61.55
2022-09-01T09:45:34.634Z,60.38
2022-09-01T09:48:10.793Z,59.42
2022-09-01T09:50:41.910Z,60.55
2022-09-01T09:53:17.481Z,59.21
2022-09-01T09:56:00.240Z,59.33
2022-09-01T09:58:36.045Z,66.19
2022-09-01T10:01:09.338Z,59.46
2022-09-01T10:03:44.347Z,59.19
2022-09-01T10:06:15.373Z,60.97
2022-09-01T10:08:48.541Z,60.76
2022-09-01T10:11:35.430Z,61.98
2022-09-01T10:14:07.769Z,61.94
2022-09-01T10:16:39.096Z,60.59
2022-09-01T10:19:13.045Z,60.61
2022-09-01T10:21:46.348Z,58.93
2022-09-01T10:24:21.389Z,57.51
2022-09-01T10:26:54.968Z,59.14
2022-09-01T10:29:26.979Z,61.93
2022-09-01T10:32:28.078Z,60.64
2022-09-01T10:34:46.675Z,57.44
2022-09-01T10:37:15.978Z,55.81
2022-09-01T10:40:20.556Z,60.80
2022-09-01T10:42:55.124Z,56.80
2022-09-01T10:45:35.257Z,56.51
2022-09-01T10:48:32.138Z,59.88
2022-09-01T10:51:38.458Z,64.42
2022-09-01T10:54:09.362Z,59.50
2022-09-01T10:56:44.409Z,54.96
2022-09-01T10:59:40.260Z,58.29
2022-09-01T11:02:25.816Z,56.65
2022-09-01T11:05:13.816Z,57.67
2022-09-01T11:08:01.522Z,59.28
2022-09-01T11:10:47.601Z,60.37
2022-09-01T11:13:37.518Z,56.19
2022-09-01T11:16:50.119Z,55.29
2022-09-01T11:19:31.694Z,54.39
2022-09-01T11:22:09.450Z,54.47
2022-09-01T11:24:58.002Z,54.13
2022-09-01T11:28:01.670Z,51.98
2022-09-01T11:30:52.889Z,54.38
2022-09-01T11:33:44.197Z,50.86
2022-09-01T11:36:23.526Z,52.58
2022-09-01T11:38:57.733Z,55.52
2022-09-01T11:41:31.225Z,51.90
2022-09-01T11:44:01.301Z,51.32
2022-09-01T11:46:34.297Z,50.40
2022-09-01T11:49:08.755Z,50.29
2022-09-01T11:51:43.882Z,54.99
2022-09-01T11:54:12.932Z,49.60
2022-09-01T11:56:41.815Z,47.98
2022-09-01T11:59:10.837Z,52.04
2022-09-01T12:01:41.068Z,52.89
2022-09-01T12:04:23.349Z,48.47
2022-09-01T12:06:54.468Z,47.28
2022-09-01T12:09:23.733Z,50.95
2022-09-01T12:11:52.804Z,48.80
2022-09-01T12:14:23.419Z,49.25
2022-09-01T12:17:00.255Z,50.69
2022-09-01T12:19:33.016Z,51.30
2022-09-01T12:22:05.339Z,51.59
2022-09-01T12:24:37.025Z,50.02
2022-09-01T12:27:05.926Z,51.28
2022-09-01T12:29:34.826Z,50.61
2022-09-01T12:32:04.228Z,51.91
2022-09-01T12:34:43.178Z,50.48
2022-09-01T12:37:21.995Z,49.95
2022-09-01T12:39:52.341Z,49.50
2022-09-01T12:42:28.392Z,50.24
2022-09-01T12:44:59.372Z,50.75
2022-09-01T12:47:50.361Z,48.84
2022-09-01T12:50:43.653Z,48.92
2022-09-01T12:53:30.552Z,49.32
2022-09-01T12:56:16.965Z,47.85
2022-09-01T12:58:49.449Z,49.44
2022-09-01T13:01:33.576Z,48.72
2022-09-01T13:04:13.504Z,46.92
2022-09-01T13:06:44.547Z,46.37
2022-09-01T13:09:13.427Z,47.74
2022-09-01T13:14:31.765Z,46.46
2022-09-01T13:17:01.676Z,47.22
2022-09-01T13:19:30.776Z,44.48
2022-09-01T13:22:02.027Z,45.23
2022-09-01T13:24:31.911Z,45.92
2022-09-01T13:29:50.285Z,47.81
2022-09-01T13:32:21.395Z,49.39
2022-09-01T13:34:52.248Z,47.19
2022-09-01T13:37:23.315Z,47.25
2022-09-01T13:39:52.491Z,47.24
2022-09-01T13:42:21.941Z,48.15
2022-09-01T13:44:54.083Z,47.88
2022-09-01T13:47:29.170Z,47.96
2022-09-01T13:50:08.287Z,47.03
2022-09-01T13:52:41.847Z,48.10
2022-09-01T13:55:12.821Z,47.54
2022-09-01T13:57:41.753Z,47.25
2022-09-01T14:00:12.881Z,47.25
2022-09-01T14:02:42.954Z,47.49
2022-09-01T14:05:12.253Z,47.94
2022-09-01T14:07:42.582Z,49.39
2022-09-01T14:10:11.869Z,46.35
2022-09-01T14:12:41.602Z,46.09
2022-09-01T14:15:15.577Z,45.82
2022-09-01T14:17:47.242Z,47.34
2022-09-01T14:20:18.445Z,46.63
2022-09-01T14:22:49.219Z,46.68
2022-09-01T14:25:20.284Z,45.64
2022-09-01T14:27:49.668Z,45.25
2022-09-01T14:30:20.406Z,44.64
2022-09-01T14:32:50.422Z,44.22
2022-09-01T14:35:20.324Z,44.96
2022-09-01T14:37:50.437Z,43.20
2022-09-01T14:40:22.565Z,44.58
2022-09-01T14:42:53.187Z,45.41
2022-09-01T14:45:23.786Z,47.01
2022-09-01T14:47:55.886Z,47.49
2022-09-01T14:50:25.261Z,46.34
2022-09-01T14:52:57.424Z,47.39
2022-09-01T14:55:29.259Z,47.20
2022-09-01T14:57:58.480Z,46.98
2022-09-01T15:00:28.136Z,47.76
2022-09-01T15:02:57.310Z,45.25
2022-09-01T15:05:26.475Z,44.65
2022-09-01T15:07:56.683Z,46.31
2022-09-01T15:10:27.728Z,46.39
2022-09-01T15:12:59.335Z,46.39
2022-09-01T15:15:29.096Z,45.62
2022-09-01T15:17:58.439Z,45.17
2022-09-01T15:20:44.902Z,46.02
2022-09-01T15:23:16.566Z,47.48
2022-09-01T15:25:45.784Z,47.42
2022-09-01T15:28:15.512Z,47.54
2022-09-01T15:30:45.547Z,47.11
2022-09-01T15:33:16.403Z,47.88
2022-09-01T15:35:46.128Z,47.93
2022-09-01T15:38:17.730Z,49.60
2022-09-01T15:40:55.448Z,47.45
2022-09-01T15:43:28.571Z,48.47
2022-09-01T15:45:59.141Z,47.43
2022-09-01T15:48:29.109Z,44.94
2022-09-01T15:51:09.906Z,44.54
2022-09-01T15:53:40.105Z,44.96
2022-09-01T15:56:08.790Z,45.44
2022-09-01T15:58:57.543Z,45.02
2022-09-01T16:01:26.749Z,46.28
2022-09-01T16:03:56.121Z,45.95
2022-09-01T16:06:28.916Z,46.88
2022-09-01T16:08:59.208Z,46.48
2022-09-01T16:11:28.473Z,46.34
2022-09-01T16:13:58.246Z,45.92
2022-09-01T16:16:40.081Z,46.35
2022-09-01T16:19:19.143Z,46.61
2022-09-01T16:21:52.948Z,47.01
2022-09-01T16:24:23.392Z,47.03
2022-09-01T16:26:52.967Z,47.90
2022-09-01T16:29:28.300Z,48.81
2022-09-01T16:31:57.433Z,47.39
2022-09-01T16:34:28.473Z,47.81
2022-09-01T16:37:03.270Z,47.47
2022-09-01T16:39:36.504Z,47.06
2022-09-01T16:42:16.806Z,46.58
2022-09-01T16:44:53.549Z,46.77
2022-09-01T16:47:34.425Z,46.72
2022-09-01T16:50:10.874Z,47.39
2022-09-01T16:52:53.660Z,46.83
2022-09-01T16:55:28.893Z,46.35
2022-09-01T16:58:01.914Z,47.51
2022-09-01T17:00:37.085Z,47.73
2022-09-01T17:03:09.396Z,47.89
2022-09-01T17:05:51.391Z,47.16
2022-09-01T17:08:22.736Z,46.47
2022-09-01T17:10:56.267Z,48.13
2022-09-01T17:13:30.126Z,48.59
2022-09-01T17:16:04.005Z,46.46
2022-09-01T17:18:35.817Z,45.23
2022-09-01T17:21:11.154Z,44.69
2022-09-01T17:23:43.111Z,45.27
2022-09-01T17:26:18.387Z,45.54
2022-09-01T17:28:55.186Z,46.69
2022-09-01T17:31:42.774Z,48.18
2022-09-01T17:34:22.163Z,50.17
2022-09-01T17:36:56.866Z,50.41
2022-09-01T17:39:36.947Z,51.47
2022-09-01T17:42:11.433Z,50.50
2022-09-01T17:44:45.422Z,49.69
2022-09-01T17:47:21.581Z,52.02
2022-09-01T17:49:55.295Z,50.26
2022-09-01T17:52:34.265Z,52.56
2022-09-01T17:55:10.057Z,52.95
2022-09-01T17:57:44.205Z,53.53
2022-09-01T18:00:23.661Z,53.70
2022-09-01T18:03:09.322Z,54.30
2022-09-01T18:05:41.596Z,53.79
2022-09-01T18:08:20.708Z,54.92
2022-09-01T18:10:53.916Z,55.24
2022-09-01T18:13:51.412Z,55.58
2022-09-01T18:16:18.424Z,55.50
2022-09-01T18:18:49.141Z,55.91
2022-09-01T18:21:20.328Z,56.63
2022-09-01T18:23:51.526Z,56.33
2022-09-01T18:26:27.312Z,57.50
2022-09-01T18:28:58.258Z,57.24
2022-09-01T18:32:10.536Z,58.15
2022-09-01T18:34:48.462Z,58.57
2022-09-01T18:37:20.905Z,57.89
2022-09-01T18:39:54.877Z,57.88
2022-09-01T18:42:27.453Z,58.27
2022-09-01T18:45:06.049Z,57.79
2022-09-01T18:47:36.920Z,59.06
2022-09-01T18:50:11.803Z,59.74
2022-09-01T18:53:05.343Z,60.23
2022-09-01T18:55:40.413Z,59.61
2022-09-01T18:58:12.464Z,59.53
2022-09-01T19:00:47.794Z,60.30
2022-09-01T19:03:27.188Z,59.95
2022-09-01T19:06:23.469Z,60.24
2022-09-01T19:09:01.643Z,60.04
2022-09-01T19:11:39.876Z,62.28
2022-09-01T19:14:15.853Z,62.42
2022-09-01T19:16:58.871Z,63.42
2022-09-01T19:19:37.584Z,64.20
2022-09-01T19:22:06.886Z,64.57
2022-09-01T19:24:39.757Z,65.05
2022-09-01T19:27:11.797Z,64.32
2022-09-01T19:29:47.038Z,64.13
2022-09-01T19:32:19.922Z,65.50
2022-09-01T19:34:52.317Z,64.77
2022-09-01T19:37:21.813Z,65.16
2022-09-01T19:39:54.198Z,65.45
2022-09-01T19:42:28.331Z,65.50
2022-09-01T19:45:05.174Z,64.74
2022-09-01T19:47:43.272Z,64.28
2022-09-01T19:50:17.850Z,64.18
2022-09-01T19:52:52.719Z,64.54
2022-09-01T19:55:30.975Z,64.72
2022-09-01T19:58:03.419Z,64.96
2022-09-01T20:00:50.743Z,65.79
2022-09-01T20:03:23.776Z,66.54
2022-09-01T20:05:56.120Z,67.67
2022-09-01T20:08:29.121Z,68.51
2022-09-01T20:11:02.193Z,68.30
2022-09-01T20:13:57.468Z,70.37
2022-09-01T20:16:30.921Z,70.83
2022-09-01T20:19:05.230Z,69.28
2022-09-01T20:21:39.969Z,70.23
2022-09-01T20:24:13.058Z,70.91
2022-09-01T20:26:46.130Z,72.63
2022-09-01T20:29:20.274Z,71.57
2022-09-01T20:31:55.406Z,71.51
2022-09-01T20:34:30.142Z,72.21
2022-09-01T20:37:03.443Z,72.92
2022-09-01T20:39:57.416Z,73.05
2022-09-01T20:42:35.307Z,72.47
2022-09-01T20:45:09.147Z,72.40
2022-09-01T20:47:37.959Z,71.79
2022-09-01T20:50:11.950Z,72.34
2022-09-01T20:52:49.424Z,71.98
2022-09-01T20:55:22.175Z,72.62
2022-09-01T20:57:55.848Z,71.92
2022-09-01T21:00:26.837Z,72.70
2022-09-01T21:03:02.154Z,73.31
2022-09-01T21:05:41.689Z,73.25
2022-09-01T21:08:20.178Z,73.27
2022-09-01T21:10:53.326Z,74.38
2022-09-01T21:13:35.528Z,74.44
2022-09-01T21:16:08.660Z,73.20
2022-09-01T21:18:46.687Z,73.05
2022-09-01T21:21:26.879Z,72.75
2022-09-01T21:23:55.604Z,72.34
2022-09-01T21:26:24.582Z,72.64
2022-09-01T21:28:56.304Z,72.64
2022-09-01T21:31:25.410Z,73.11
2022-09-01T21:33:54.153Z,72.95
2022-09-01T21:36:24.274Z,73.29
2022-09-01T21:38:53.068Z,73.37
2022-09-01T21:41:21.837Z,74.22
2022-09-01T21:43:50.859Z,73.96
2022-09-01T21:46:20.628Z,74.21
2022-09-01T21:48:49.423Z,74.45
2022-09-01T21:51:20.301Z,74.69
2022-09-01T21:53:50.816Z,73.59
2022-09-01T21:56:19.916Z,73.40
2022-09-01T21:58:55.688Z,72.67
2022-09-01T22:01:26.860Z,72.77
2022-09-01T22:03:55.607Z,72.81
2022-09-01T22:06:24.491Z,72.53
2022-09-01T22:08:55.232Z,72.36
2022-09-01T22:11:24.185Z,72.17
2022-09-01T22:13:53.460Z,72.79
2022-09-01T22:16:23.670Z,74.08
2022-09-01T22:18:52.591Z,74.55
2022-09-01T22:21:24.573Z,75.52
2022-09-01T22:23:55.258Z,77.10
2022-09-01T22:26:28.909Z,77.75
2022-09-01T22:28:59.658Z,77.76
2022-09-01T22:31:32.768Z,79.09
2022-09-01T22:34:02.608Z,78.73
2022-09-01T22:36:33.485Z,78.55
2022-09-01T22:39:04.091Z,78.52
2022-09-01T22:41:33.801Z,78.95
2022-09-01T22:44:03.745Z,78.84
2022-09-01T22:46:33.729Z,78.28
2022-09-01T22:49:04.047Z,79.13
2022-09-01T22:51:33.834Z,77.62
2022-09-01T22:54:04.528Z,75.98
2022-09-01T22:56:36.135Z,77.65
2022-09-01T22:59:09.603Z,78.87
2022-09-01T23:01:42.074Z,78.74
2022-09-01T23:04:13.147Z,78.48
2022-09-01T23:06:44.900Z,78.70
2022-09-01T23:09:17.894Z,78.12
2022-09-01T23:11:47.160Z,78.43
2022-09-01T23:14:18.655Z,78.80
2022-09-01T23:16:51.517Z,80.03
2022-09-01T23:19:22.860Z,80.04
2022-09-01T23:21:52.594Z,80.39
2022-09-01T23:24:23.200Z,80.73
2022-09-01T23:26:52.302Z,80.13
2022-09-01T23:29:21.362Z,80.21
2022-09-01T23:31:50.255Z,79.60
2022-09-01T23:34:19.174Z,80.18
2022-09-01T23:36:48.319Z,79.39
2022-09-01T23:39:19.205Z,77.78
2022-09-01T23:41:49.448Z,76.15
2022-09-01T23:44:18.258Z,77.03
2022-09-01T23:46:47.755Z,76.53
2022-09-01T23:49:18.356Z,75.76
2022-09-01T23:51:48.242Z,76.58
2022-09-01T23:54:17.267Z,76.36
2022-09-01T23:56:47.048Z,77.84
2022-09-01T23:59:17.271Z,77.71
